sensor_id;sensor_type;location;lat;lon;timestamp;pressure;altitude;pressure_sealevel;temperature;humidity
10510;BME280;5303;53.266;10.410;2023-04-07T00:01:51;101550.75;;;4.39;54.57
10510;BME280;5303;53.266;10.410;2023-04-07T00:04:16;101561.03;;;4.33;55.17
10510;BME280;5303;53.266;10.410;2023-04-07T00:06:42;101555.69;;;4.30;55.59
10510;BME280;5303;53.266;10.410;2023-04-07T00:09:08;101551.09;;;4.23;55.68
10510;BME280;5303;53.266;10.410;2023-04-07T00:11:34;101553.47;;;4.17;56.29
10510;BME280;5303;53.266;10.410;2023-04-07T00:13:59;101548.06;;;4.11;57.08
10510;BME280;5303;53.266;10.410;2023-04-07T00:16:24;101552.53;;;4.15;56.96
10510;BME280;5303;53.266;10.410;2023-04-07T00:18:50;101546.09;;;4.05;56.76
10510;BME280;5303;53.266;10.410;2023-04-07T00:21:15;101551.19;;;4.00;56.94
10510;BME280;5303;53.266;10.410;2023-04-07T00:23:40;101545.72;;;3.94;57.23
10510;BME280;5303;53.266;10.410;2023-04-07T00:26:07;101547.31;;;3.89;57.26
10510;BME280;5303;53.266;10.410;2023-04-07T00:28:32;101550.00;;;3.92;57.21
10510;BME280;5303;53.266;10.410;2023-04-07T00:30:57;101542.09;;;3.89;57.79
10510;BME280;5303;53.266;10.410;2023-04-07T00:33:22;101538.41;;;3.84;57.74
10510;BME280;5303;53.266;10.410;2023-04-07T00:35:48;101551.41;;;3.83;57.79
10510;BME280;5303;53.266;10.410;2023-04-07T00:38:13;101545.06;;;3.76;57.60
10510;BME280;5303;53.266;10.410;2023-04-07T00:40:38;101543.28;;;3.75;57.84
10510;BME280;5303;53.266;10.410;2023-04-07T00:43:03;101542.69;;;3.82;57.45
10510;BME280;5303;53.266;10.410;2023-04-07T00:45:29;101543.44;;;3.78;57.80
10510;BME280;5303;53.266;10.410;2023-04-07T00:47:56;101539.00;;;3.77;57.47
10510;BME280;5303;53.266;10.410;2023-04-07T00:50:22;101536.53;;;3.80;57.42
10510;BME280;5303;53.266;10.410;2023-04-07T00:52:47;101529.03;;;3.89;56.80
10510;BME280;5303;53.266;10.410;2023-04-07T00:55:12;101540.19;;;3.85;57.14
10510;BME280;5303;53.266;10.410;2023-04-07T00:57:38;101539.25;;;3.83;57.43
10510;BME280;5303;53.266;10.410;2023-04-07T01:00:03;101530.44;;;3.80;57.58
10510;BME280;5303;53.266;10.410;2023-04-07T01:02:46;101538.97;;;3.75;57.80
10510;BME280;5303;53.266;10.410;2023-04-07T01:05:15;101545.81;;;3.72;58.09
10510;BME280;5303;53.266;10.410;2023-04-07T01:10:36;101546.19;;;3.83;56.25
10510;BME280;5303;53.266;10.410;2023-04-07T01:13:14;101542.84;;;3.87;56.59
10510;BME280;5303;53.266;10.410;2023-04-07T01:15:44;101539.09;;;3.79;56.55
10510;BME280;5303;53.266;10.410;2023-04-07T01:18:20;101542.25;;;3.70;56.45
10510;BME280;5303;53.266;10.410;2023-04-07T01:20:49;101540.34;;;3.66;56.48
10510;BME280;5303;53.266;10.410;2023-04-07T01:23:27;101546.19;;;3.59;56.80
10510;BME280;5303;53.266;10.410;2023-04-07T01:26:10;101541.38;;;3.47;57.08
10510;BME280;5303;53.266;10.410;2023-04-07T01:29:09;101538.38;;;3.36;58.03
10510;BME280;5303;53.266;10.410;2023-04-07T01:31:38;101539.69;;;3.25;59.01
10510;BME280;5303;53.266;10.410;2023-04-07T01:34:05;101535.94;;;3.17;59.56
10510;BME280;5303;53.266;10.410;2023-04-07T01:36:32;101544.44;;;3.13;59.55
10510;BME280;5303;53.266;10.410;2023-04-07T01:38:58;101538.41;;;3.14;58.94
10510;BME280;5303;53.266;10.410;2023-04-07T01:41:24;101542.41;;;3.06;59.92
10510;BME280;5303;53.266;10.410;2023-04-07T01:43:51;101535.44;;;3.05;60.27
10510;BME280;5303;53.266;10.410;2023-04-07T01:46:17;101543.09;;;3.00;60.66
10510;BME280;5303;53.266;10.410;2023-04-07T01:48:43;101542.09;;;2.97;60.33
10510;BME280;5303;53.266;10.410;2023-04-07T01:51:09;101536.94;;;3.21;57.88
10510;BME280;5303;53.266;10.410;2023-04-07T01:53:37;101539.22;;;3.13;58.00
10510;BME280;5303;53.266;10.410;2023-04-07T01:56:03;101538.22;;;3.09;57.91
10510;BME280;5303;53.266;10.410;2023-04-07T01:58:29;101550.97;;;3.02;58.25
10510;BME280;5303;53.266;10.410;2023-04-07T02:00:55;101542.31;;;3.03;58.35
10510;BME280;5303;53.266;10.410;2023-04-07T02:03:29;101540.44;;;2.99;58.80
10510;BME280;5303;53.266;10.410;2023-04-07T02:05:58;101547.03;;;2.91;59.19
10510;BME280;5303;53.266;10.410;2023-04-07T02:08:27;101541.72;;;2.87;59.97
10510;BME280;5303;53.266;10.410;2023-04-07T02:10:54;101544.97;;;2.82;60.08
10510;BME280;5303;53.266;10.410;2023-04-07T02:13:21;101548.56;;;2.85;59.97
10510;BME280;5303;53.266;10.410;2023-04-07T02:15:47;101541.84;;;2.91;59.80
10510;BME280;5303;53.266;10.410;2023-04-07T02:18:14;101536.50;;;3.10;57.84
10510;BME280;5303;53.266;10.410;2023-04-07T02:20:42;101546.09;;;3.11;57.50
10510;BME280;5303;53.266;10.410;2023-04-07T02:23:09;101549.66;;;3.13;57.66
10510;BME280;5303;53.266;10.410;2023-04-07T02:25:34;101540.53;;;3.02;58.70
10510;BME280;5303;53.266;10.410;2023-04-07T02:28:02;101538.50;;;2.95;58.82
10510;BME280;5303;53.266;10.410;2023-04-07T02:30:30;101537.34;;;2.86;58.99
10510;BME280;5303;53.266;10.410;2023-04-07T02:32:55;101542.34;;;2.82;59.62
10510;BME280;5303;53.266;10.410;2023-04-07T02:35:21;101542.09;;;2.76;60.13
10510;BME280;5303;53.266;10.410;2023-04-07T02:37:46;101546.25;;;2.71;60.29
10510;BME280;5303;53.266;10.410;2023-04-07T02:40:12;101543.31;;;2.63;60.72
10510;BME280;5303;53.266;10.410;2023-04-07T02:42:38;101545.69;;;2.57;60.87
10510;BME280;5303;53.266;10.410;2023-04-07T02:45:04;101545.94;;;2.63;60.66
10510;BME280;5303;53.266;10.410;2023-04-07T02:47:30;101549.47;;;2.65;59.89
10510;BME280;5303;53.266;10.410;2023-04-07T02:49:55;101552.03;;;2.64;59.91
10510;BME280;5303;53.266;10.410;2023-04-07T02:52:20;101555.72;;;2.69;59.58
10510;BME280;5303;53.266;10.410;2023-04-07T02:54:46;101550.38;;;2.66;59.69
10510;BME280;5303;53.266;10.410;2023-04-07T02:57:11;101548.53;;;2.63;59.62
10510;BME280;5303;53.266;10.410;2023-04-07T02:59:38;101543.25;;;2.62;60.76
10510;BME280;5303;53.266;10.410;2023-04-07T03:02:03;101547.13;;;2.71;60.19
10510;BME280;5303;53.266;10.410;2023-04-07T03:04:28;101553.19;;;2.70;59.86
10510;BME280;5303;53.266;10.410;2023-04-07T03:06:53;101554.78;;;2.67;59.80
10510;BME280;5303;53.266;10.410;2023-04-07T03:09:20;101554.19;;;2.74;59.16
10510;BME280;5303;53.266;10.410;2023-04-07T03:11:46;101553.06;;;2.67;59.29
10510;BME280;5303;53.266;10.410;2023-04-07T03:14:11;101549.13;;;2.77;58.79
10510;BME280;5303;53.266;10.410;2023-04-07T03:16:36;101549.44;;;2.86;56.89
10510;BME280;5303;53.266;10.410;2023-04-07T03:19:01;101554.31;;;2.77;58.01
10510;BME280;5303;53.266;10.410;2023-04-07T03:21:27;101552.78;;;2.82;56.82
10510;BME280;5303;53.266;10.410;2023-04-07T03:23:53;101548.09;;;2.96;56.08
10510;BME280;5303;53.266;10.410;2023-04-07T03:26:18;101551.47;;;2.93;57.33
10510;BME280;5303;53.266;10.410;2023-04-07T03:28:43;101556.63;;;2.92;56.43
10510;BME280;5303;53.266;10.410;2023-04-07T03:31:09;101554.22;;;2.75;57.36
10510;BME280;5303;53.266;10.410;2023-04-07T03:33:34;101554.69;;;2.65;57.67
10510;BME280;5303;53.266;10.410;2023-04-07T03:35:59;101566.38;;;2.54;58.63
10510;BME280;5303;53.266;10.410;2023-04-07T03:38:25;101568.59;;;2.45;58.94
10510;BME280;5303;53.266;10.410;2023-04-07T03:40:50;101570.09;;;2.38;58.92
10510;BME280;5303;53.266;10.410;2023-04-07T03:43:15;101567.16;;;2.30;59.44
10510;BME280;5303;53.266;10.410;2023-04-07T03:45:41;101577.28;;;2.24;60.09
10510;BME280;5303;53.266;10.410;2023-04-07T03:48:07;101576.34;;;2.22;59.84
10510;BME280;5303;53.266;10.410;2023-04-07T03:50:39;101581.16;;;2.13;59.84
10510;BME280;5303;53.266;10.410;2023-04-07T03:53:05;101576.47;;;2.05;60.95
10510;BME280;5303;53.266;10.410;2023-04-07T03:55:32;101587.47;;;1.99;61.32
10510;BME280;5303;53.266;10.410;2023-04-07T03:57:57;101580.22;;;1.92;61.72
10510;BME280;5303;53.266;10.410;2023-04-07T04:00:23;101592.97;;;1.86;62.45
10510;BME280;5303;53.266;10.410;2023-04-07T04:02:48;101587.59;;;1.83;62.52
10510;BME280;5303;53.266;10.410;2023-04-07T04:05:13;101585.69;;;1.79;62.45
10510;BME280;5303;53.266;10.410;2023-04-07T04:07:38;101592.38;;;1.73;63.09
10510;BME280;5303;53.266;10.410;2023-04-07T04:10:04;101589.00;;;1.75;63.80
10510;BME280;5303;53.266;10.410;2023-04-07T04:12:30;101588.00;;;1.72;63.35
10510;BME280;5303;53.266;10.410;2023-04-07T04:14:56;101599.06;;;1.86;62.56
10510;BME280;5303;53.266;10.410;2023-04-07T04:17:21;101603.63;;;1.92;62.27
10510;BME280;5303;53.266;10.410;2023-04-07T04:19:46;101601.19;;;1.95;61.83
10510;BME280;5303;53.266;10.410;2023-04-07T04:22:11;101596.78;;;1.94;61.63
10510;BME280;5303;53.266;10.410;2023-04-07T04:24:37;101595.88;;;1.93;62.13
10510;BME280;5303;53.266;10.410;2023-04-07T04:27:02;101600.06;;;1.90;62.02
10510;BME280;5303;53.266;10.410;2023-04-07T04:29:27;101599.78;;;1.84;62.65
10510;BME280;5303;53.266;10.410;2023-04-07T04:31:53;101603.38;;;1.86;62.56
10510;BME280;5303;53.266;10.410;2023-04-07T04:34:18;101607.34;;;1.78;61.61
10510;BME280;5303;53.266;10.410;2023-04-07T04:36:43;101608.81;;;1.72;61.82
10510;BME280;5303;53.266;10.410;2023-04-07T04:39:09;101614.72;;;1.68;62.52
10510;BME280;5303;53.266;10.410;2023-04-07T04:41:34;101612.81;;;1.64;62.89
10510;BME280;5303;53.266;10.410;2023-04-07T04:43:59;101616.06;;;1.60;63.19
10510;BME280;5303;53.266;10.410;2023-04-07T04:46:25;101625.31;;;1.54;63.46
10510;BME280;5303;53.266;10.410;2023-04-07T04:48:51;101624.25;;;1.50;64.19
10510;BME280;5303;53.266;10.410;2023-04-07T04:51:17;101618.19;;;1.50;64.36
10510;BME280;5303;53.266;10.410;2023-04-07T04:53:42;101618.25;;;1.51;64.68
10510;BME280;5303;53.266;10.410;2023-04-07T04:56:07;101619.06;;;1.50;64.70
10510;BME280;5303;53.266;10.410;2023-04-07T04:58:33;101619.06;;;1.50;65.12
10510;BME280;5303;53.266;10.410;2023-04-07T05:00:59;101622.50;;;1.49;65.26
10510;BME280;5303;53.266;10.410;2023-04-07T05:03:26;101625.53;;;1.58;64.85
10510;BME280;5303;53.266;10.410;2023-04-07T05:05:52;101628.94;;;1.57;64.82
10510;BME280;5303;53.266;10.410;2023-04-07T05:08:17;101626.41;;;1.59;64.49
10510;BME280;5303;53.266;10.410;2023-04-07T05:10:42;101624.81;;;1.62;64.49
10510;BME280;5303;53.266;10.410;2023-04-07T05:13:07;101627.72;;;1.68;65.09
10510;BME280;5303;53.266;10.410;2023-04-07T05:15:33;101627.63;;;1.85;63.52
10510;BME280;5303;53.266;10.410;2023-04-07T05:17:58;101632.78;;;2.04;61.40
10510;BME280;5303;53.266;10.410;2023-04-07T05:20:23;101631.69;;;2.18;60.11
10510;BME280;5303;53.266;10.410;2023-04-07T05:22:48;101638.56;;;2.16;60.69
10510;BME280;5303;53.266;10.410;2023-04-07T05:25:14;101640.31;;;2.37;60.02
10510;BME280;5303;53.266;10.410;2023-04-07T05:27:39;101639.50;;;2.38;60.03
10510;BME280;5303;53.266;10.410;2023-04-07T05:30:05;101650.72;;;2.37;60.31
10510;BME280;5303;53.266;10.410;2023-04-07T05:32:31;101649.72;;;2.54;58.89
10510;BME280;5303;53.266;10.410;2023-04-07T05:34:56;101653.31;;;2.56;58.24
10510;BME280;5303;53.266;10.410;2023-04-07T05:37:21;101649.16;;;2.61;58.29
10510;BME280;5303;53.266;10.410;2023-04-07T05:39:46;101649.88;;;2.78;58.12
10510;BME280;5303;53.266;10.410;2023-04-07T05:42:12;101646.63;;;2.83;58.67
10510;BME280;5303;53.266;10.410;2023-04-07T05:44:37;101658.72;;;3.02;58.16
10510;BME280;5303;53.266;10.410;2023-04-07T05:47:02;101644.22;;;3.09;57.48
10510;BME280;5303;53.266;10.410;2023-04-07T05:49:32;101653.94;;;3.13;57.75
10510;BME280;5303;53.266;10.410;2023-04-07T05:51:58;101668.38;;;3.05;58.23
10510;BME280;5303;53.266;10.410;2023-04-07T05:54:23;101669.41;;;3.08;58.57
10510;BME280;5303;53.266;10.410;2023-04-07T05:56:48;101665.09;;;3.31;56.14
10510;BME280;5303;53.266;10.410;2023-04-07T05:59:13;101661.78;;;3.35;56.51
10510;BME280;5303;53.266;10.410;2023-04-07T06:01:39;101667.41;;;3.46;57.19
10510;BME280;5303;53.266;10.410;2023-04-07T06:04:04;101666.53;;;3.45;55.69
10510;BME280;5303;53.266;10.410;2023-04-07T06:06:29;101670.69;;;3.40;55.94
10510;BME280;5303;53.266;10.410;2023-04-07T06:08:55;101671.16;;;3.53;56.81
10510;BME280;5303;53.266;10.410;2023-04-07T06:11:20;101671.22;;;3.54;57.16
10510;BME280;5303;53.266;10.410;2023-04-07T06:13:46;101675.59;;;3.78;55.59
10510;BME280;5303;53.266;10.410;2023-04-07T06:16:11;101672.81;;;3.95;54.49
10510;BME280;5303;53.266;10.410;2023-04-07T06:18:36;101677.63;;;4.09;54.45
10510;BME280;5303;53.266;10.410;2023-04-07T06:21:02;101683.59;;;4.04;55.11
10510;BME280;5303;53.266;10.410;2023-04-07T06:23:27;101685.47;;;4.09;55.12
10510;BME280;5303;53.266;10.410;2023-04-07T06:25:52;101688.50;;;4.19;54.00
10510;BME280;5303;53.266;10.410;2023-04-07T06:28:18;101686.69;;;4.18;54.06
10510;BME280;5303;53.266;10.410;2023-04-07T06:30:44;101689.31;;;4.18;55.21
10510;BME280;5303;53.266;10.410;2023-04-07T06:33:09;101689.69;;;4.29;54.43
10510;BME280;5303;53.266;10.410;2023-04-07T06:35:34;101694.28;;;4.34;53.89
10510;BME280;5303;53.266;10.410;2023-04-07T06:38:00;101692.63;;;4.60;53.07
10510;BME280;5303;53.266;10.410;2023-04-07T06:40:26;101693.75;;;4.69;52.58
10510;BME280;5303;53.266;10.410;2023-04-07T06:42:51;101700.03;;;4.74;52.75
10510;BME280;5303;53.266;10.410;2023-04-07T06:45:18;101693.88;;;4.72;53.06
10510;BME280;5303;53.266;10.410;2023-04-07T06:47:44;101697.38;;;4.72;53.88
10510;BME280;5303;53.266;10.410;2023-04-07T06:50:09;101695.84;;;5.04;52.95
10510;BME280;5303;53.266;10.410;2023-04-07T06:52:34;101692.78;;;5.17;51.51
10510;BME280;5303;53.266;10.410;2023-04-07T06:55:00;101694.44;;;5.14;52.00
10510;BME280;5303;53.266;10.410;2023-04-07T06:57:25;101693.00;;;5.24;51.89
10510;BME280;5303;53.266;10.410;2023-04-07T06:59:51;101692.31;;;5.29;51.76
10510;BME280;5303;53.266;10.410;2023-04-07T07:02:16;101697.44;;;5.26;51.13
10510;BME280;5303;53.266;10.410;2023-04-07T07:04:42;101698.53;;;5.33;53.03
10510;BME280;5303;53.266;10.410;2023-04-07T07:07:07;101698.00;;;5.43;51.34
10510;BME280;5303;53.266;10.410;2023-04-07T07:09:32;101703.31;;;5.73;50.37
10510;BME280;5303;53.266;10.410;2023-04-07T07:11:57;101699.97;;;5.78;49.40
10510;BME280;5303;53.266;10.410;2023-04-07T07:14:23;101701.88;;;5.83;48.89
10510;BME280;5303;53.266;10.410;2023-04-07T07:16:48;101706.72;;;5.99;49.26
10510;BME280;5303;53.266;10.410;2023-04-07T07:19:13;101707.38;;;5.92;49.06
10510;BME280;5303;53.266;10.410;2023-04-07T07:21:39;101713.63;;;5.95;48.75
10510;BME280;5303;53.266;10.410;2023-04-07T07:24:04;101707.81;;;6.05;49.22
10510;BME280;5303;53.266;10.410;2023-04-07T07:26:30;101714.78;;;6.05;47.82
10510;BME280;5303;53.266;10.410;2023-04-07T07:28:55;101707.25;;;6.16;49.90
10510;BME280;5303;53.266;10.410;2023-04-07T07:31:20;101713.63;;;6.25;47.39
10510;BME280;5303;53.266;10.410;2023-04-07T07:33:45;101712.22;;;6.37;47.67
10510;BME280;5303;53.266;10.410;2023-04-07T07:36:13;101721.41;;;6.54;48.59
10510;BME280;5303;53.266;10.410;2023-04-07T07:38:38;101721.41;;;6.54;47.43
10510;BME280;5303;53.266;10.410;2023-04-07T07:41:05;101724.50;;;6.71;47.57
10510;BME280;5303;53.266;10.410;2023-04-07T07:43:31;101720.53;;;6.85;46.64
10510;BME280;5303;53.266;10.410;2023-04-07T07:45:56;101718.63;;;6.79;45.94
10510;BME280;5303;53.266;10.410;2023-04-07T07:48:21;101730.22;;;6.87;47.32
10510;BME280;5303;53.266;10.410;2023-04-07T07:50:47;101732.34;;;7.02;46.97
10510;BME280;5303;53.266;10.410;2023-04-07T07:53:13;101734.88;;;6.98;46.75
10510;BME280;5303;53.266;10.410;2023-04-07T07:55:38;101730.66;;;7.04;47.27
10510;BME280;5303;53.266;10.410;2023-04-07T07:58:03;101732.91;;;6.90;47.03
10510;BME280;5303;53.266;10.410;2023-04-07T08:00:29;101739.59;;;6.79;47.07
10510;BME280;5303;53.266;10.410;2023-04-07T08:02:54;101745.66;;;6.77;46.43
10510;BME280;5303;53.266;10.410;2023-04-07T08:05:20;101747.50;;;6.81;48.02
10510;BME280;5303;53.266;10.410;2023-04-07T08:07:45;101754.81;;;6.92;46.01
10510;BME280;5303;53.266;10.410;2023-04-07T08:10:12;101748.91;;;7.00;45.99
10510;BME280;5303;53.266;10.410;2023-04-07T08:12:37;101748.63;;;6.89;46.22
10510;BME280;5303;53.266;10.410;2023-04-07T08:15:04;101750.69;;;7.01;46.85
10510;BME280;5303;53.266;10.410;2023-04-07T08:17:29;101760.69;;;7.15;45.74
10510;BME280;5303;53.266;10.410;2023-04-07T08:19:55;101756.34;;;7.16;44.91
10510;BME280;5303;53.266;10.410;2023-04-07T08:22:20;101761.97;;;7.31;44.35
10510;BME280;5303;53.266;10.410;2023-04-07T08:24:45;101760.19;;;7.30;44.62
10510;BME280;5303;53.266;10.410;2023-04-07T08:27:11;101755.13;;;7.36;44.37
10510;BME280;5303;53.266;10.410;2023-04-07T08:29:37;101755.00;;;7.33;44.29
10510;BME280;5303;53.266;10.410;2023-04-07T08:32:02;101757.00;;;7.43;44.09
10510;BME280;5303;53.266;10.410;2023-04-07T08:34:27;101748.66;;;7.58;42.88
10510;BME280;5303;53.266;10.410;2023-04-07T08:36:52;101750.66;;;7.70;43.55
10510;BME280;5303;53.266;10.410;2023-04-07T08:39:18;101752.50;;;7.74;42.60
10510;BME280;5303;53.266;10.410;2023-04-07T08:41:44;101754.44;;;7.81;42.37
10510;BME280;5303;53.266;10.410;2023-04-07T08:44:12;101756.56;;;7.97;41.89
10510;BME280;5303;53.266;10.410;2023-04-07T08:46:38;101753.72;;;7.88;44.46
10510;BME280;5303;53.266;10.410;2023-04-07T08:49:07;101756.63;;;8.00;42.87
10510;BME280;5303;53.266;10.410;2023-04-07T08:51:36;101754.50;;;8.23;41.09
10510;BME280;5303;53.266;10.410;2023-04-07T08:54:12;101758.41;;;8.39;42.10
10510;BME280;5303;53.266;10.410;2023-04-07T08:56:39;101753.34;;;8.50;42.17
10510;BME280;5303;53.266;10.410;2023-04-07T08:59:12;101750.63;;;8.47;42.43
10510;BME280;5303;53.266;10.410;2023-04-07T09:01:39;101756.66;;;8.40;40.38
10510;BME280;5303;53.266;10.410;2023-04-07T09:04:05;101755.81;;;8.42;39.90
10510;BME280;5303;53.266;10.410;2023-04-07T09:06:34;101754.06;;;8.43;40.90
10510;BME280;5303;53.266;10.410;2023-04-07T09:09:01;101765.03;;;8.64;41.06
10510;BME280;5303;53.266;10.410;2023-04-07T09:11:27;101755.38;;;8.64;40.06
10510;BME280;5303;53.266;10.410;2023-04-07T09:13:56;101747.63;;;8.71;41.39
10510;BME280;5303;53.266;10.410;2023-04-07T09:16:23;101754.63;;;8.69;40.08
10510;BME280;5303;53.266;10.410;2023-04-07T09:18:48;101759.97;;;8.75;40.83
10510;BME280;5303;53.266;10.410;2023-04-07T09:21:14;101746.38;;;8.52;41.04
10510;BME280;5303;53.266;10.410;2023-04-07T09:23:41;101749.22;;;8.62;40.99
10510;BME280;5303;53.266;10.410;2023-04-07T09:26:19;101753.06;;;8.80;43.88
10510;BME280;5303;53.266;10.410;2023-04-07T09:28:54;101750.66;;;8.92;40.70
10510;BME280;5303;53.266;10.410;2023-04-07T09:31:21;101749.72;;;8.88;40.63
10510;BME280;5303;53.266;10.410;2023-04-07T09:33:50;101748.03;;;8.92;39.18
10510;BME280;5303;53.266;10.410;2023-04-07T09:36:15;101746.44;;;9.00;42.08
10510;BME280;5303;53.266;10.410;2023-04-07T09:38:43;101747.88;;;8.83;39.04
10510;BME280;5303;53.266;10.410;2023-04-07T09:41:15;101747.06;;;8.87;38.84
10510;BME280;5303;53.266;10.410;2023-04-07T09:43:43;101748.38;;;9.10;40.74
10510;BME280;5303;53.266;10.410;2023-04-07T09:46:17;101742.78;;;8.92;39.31
10510;BME280;5303;53.266;10.410;2023-04-07T09:48:44;101749.94;;;8.99;39.40
10510;BME280;5303;53.266;10.410;2023-04-07T09:51:10;101752.69;;;9.07;39.28
10510;BME280;5303;53.266;10.410;2023-04-07T09:53:46;101748.22;;;9.01;38.83
10510;BME280;5303;53.266;10.410;2023-04-07T09:56:13;101739.63;;;9.11;38.10
10510;BME280;5303;53.266;10.410;2023-04-07T09:58:40;101732.78;;;9.22;40.11
10510;BME280;5303;53.266;10.410;2023-04-07T10:01:08;101739.88;;;9.27;40.06
10510;BME280;5303;53.266;10.410;2023-04-07T10:03:37;101735.94;;;9.53;40.53
10510;BME280;5303;53.266;10.410;2023-04-07T10:06:04;101745.91;;;9.72;38.29
10510;BME280;5303;53.266;10.410;2023-04-07T10:08:32;101742.22;;;9.61;36.51
10510;BME280;5303;53.266;10.410;2023-04-07T10:11:00;101742.53;;;9.28;36.87
10510;BME280;5303;53.266;10.410;2023-04-07T10:13:30;101744.34;;;9.31;37.76
10510;BME280;5303;53.266;10.410;2023-04-07T10:15:57;101743.69;;;9.44;38.57
10510;BME280;5303;53.266;10.410;2023-04-07T10:18:28;101741.13;;;9.48;36.73
10510;BME280;5303;53.266;10.410;2023-04-07T10:20:56;101740.38;;;9.57;36.51
10510;BME280;5303;53.266;10.410;2023-04-07T10:23:31;101743.72;;;9.47;38.45
10510;BME280;5303;53.266;10.410;2023-04-07T10:26:00;101738.78;;;9.67;36.78
10510;BME280;5303;53.266;10.410;2023-04-07T10:28:27;101737.13;;;9.73;36.34
10510;BME280;5303;53.266;10.410;2023-04-07T10:30:54;101734.34;;;9.63;36.31
10510;BME280;5303;53.266;10.410;2023-04-07T10:33:43;101750.16;;;9.64;36.38
10510;BME280;5303;53.266;10.410;2023-04-07T10:36:09;101744.13;;;9.71;36.31
10510;BME280;5303;53.266;10.410;2023-04-07T10:38:34;101751.22;;;9.75;37.07
10510;BME280;5303;53.266;10.410;2023-04-07T10:41:33;101749.41;;;9.71;38.96
10510;BME280;5303;53.266;10.410;2023-04-07T10:44:02;101745.19;;;9.84;38.28
10510;BME280;5303;53.266;10.410;2023-04-07T10:49:13;101752.84;;;9.67;37.67
10510;BME280;5303;53.266;10.410;2023-04-07T10:51:39;101742.22;;;9.61;38.99
10510;BME280;5303;53.266;10.410;2023-04-07T10:54:20;101751.91;;;9.62;37.60
10510;BME280;5303;53.266;10.410;2023-04-07T10:59:27;101747.19;;;9.43;37.18
10510;BME280;5303;53.266;10.410;2023-04-07T11:04:37;101732.47;;;9.57;37.24
10510;BME280;5303;53.266;10.410;2023-04-07T11:07:03;101734.41;;;9.69;36.99
10510;BME280;5303;53.266;10.410;2023-04-07T11:09:28;101734.56;;;9.79;38.45
10510;BME280;5303;53.266;10.410;2023-04-07T11:11:53;101732.75;;;9.74;36.34
10510;BME280;5303;53.266;10.410;2023-04-07T11:14:28;101729.56;;;9.96;36.27
10510;BME280;5303;53.266;10.410;2023-04-07T11:16:55;101730.31;;;9.88;36.42
10510;BME280;5303;53.266;10.410;2023-04-07T11:19:20;101737.75;;;10.18;36.13
10510;BME280;5303;53.266;10.410;2023-04-07T11:21:46;101731.56;;;10.14;35.81
10510;BME280;5303;53.266;10.410;2023-04-07T11:24:31;101749.13;;;10.12;34.62
10510;BME280;5303;53.266;10.410;2023-04-07T11:26:56;101737.59;;;10.07;35.76
10510;BME280;5303;53.266;10.410;2023-04-07T11:29:29;101741.09;;;10.03;35.04
10510;BME280;5303;53.266;10.410;2023-04-07T11:31:57;101727.97;;;10.09;38.40
10510;BME280;5303;53.266;10.410;2023-04-07T11:34:28;101727.19;;;10.16;34.24
10510;BME280;5303;53.266;10.410;2023-04-07T11:36:54;101733.91;;;9.91;34.35
10510;BME280;5303;53.266;10.410;2023-04-07T11:39:23;101740.41;;;10.19;34.73
10510;BME280;5303;53.266;10.410;2023-04-07T11:41:52;101732.03;;;9.86;34.41
10510;BME280;5303;53.266;10.410;2023-04-07T11:44:17;101721.75;;;10.04;34.62
10510;BME280;5303;53.266;10.410;2023-04-07T11:46:59;101729.81;;;10.13;36.53
10510;BME280;5303;53.266;10.410;2023-04-07T11:49:26;101741.53;;;10.35;34.98
10510;BME280;5303;53.266;10.410;2023-04-07T11:52:02;101732.66;;;10.28;34.48
10510;BME280;5303;53.266;10.410;2023-04-07T11:54:45;101728.13;;;10.21;34.12
10510;BME280;5303;53.266;10.410;2023-04-07T11:57:11;101740.34;;;10.15;33.01
10510;BME280;5303;53.266;10.410;2023-04-07T11:59:37;101727.75;;;9.92;32.40
10510;BME280;5303;53.266;10.410;2023-04-07T12:02:03;101736.16;;;10.27;34.72
10510;BME280;5303;53.266;10.410;2023-04-07T12:04:28;101737.88;;;10.24;32.89
10510;BME280;5303;53.266;10.410;2023-04-07T12:07:06;101737.88;;;10.22;32.86
10510;BME280;5303;53.266;10.410;2023-04-07T12:09:33;101739.50;;;10.17;34.98
10510;BME280;5303;53.266;10.410;2023-04-07T12:12:03;101744.91;;;10.23;33.44
10510;BME280;5303;53.266;10.410;2023-04-07T12:14:30;101742.41;;;10.32;34.30
10510;BME280;5303;53.266;10.410;2023-04-07T12:16:55;101739.50;;;10.17;34.59
10510;BME280;5303;53.266;10.410;2023-04-07T12:19:26;101742.97;;;10.13;34.63
10510;BME280;5303;53.266;10.410;2023-04-07T12:21:55;101741.41;;;10.26;32.53
10510;BME280;5303;53.266;10.410;2023-04-07T12:24:21;101753.84;;;10.33;31.49
10510;BME280;5303;53.266;10.410;2023-04-07T12:26:46;101748.84;;;10.56;33.83
10510;BME280;5303;53.266;10.410;2023-04-07T12:29:12;101747.72;;;10.38;32.79
10510;BME280;5303;53.266;10.410;2023-04-07T12:31:37;101736.28;;;10.36;33.00
10510;BME280;5303;53.266;10.410;2023-04-07T12:34:03;101738.06;;;10.41;33.56
10510;BME280;5303;53.266;10.410;2023-04-07T12:36:28;101736.66;;;10.68;33.47
10510;BME280;5303;53.266;10.410;2023-04-07T12:38:56;101746.22;;;10.60;33.09
10510;BME280;5303;53.266;10.410;2023-04-07T12:41:23;101744.31;;;10.47;32.39
10510;BME280;5303;53.266;10.410;2023-04-07T12:43:48;101746.94;;;10.43;31.48
10510;BME280;5303;53.266;10.410;2023-04-07T12:46:14;101751.06;;;10.22;33.26
10510;BME280;5303;53.266;10.410;2023-04-07T12:48:39;101745.88;;;10.31;34.09
10510;BME280;5303;53.266;10.410;2023-04-07T12:51:05;101736.91;;;10.20;34.59
10510;BME280;5303;53.266;10.410;2023-04-07T12:53:30;101741.44;;;10.27;33.60
10510;BME280;5303;53.266;10.410;2023-04-07T12:55:56;101743.22;;;10.31;33.26
10510;BME280;5303;53.266;10.410;2023-04-07T12:58:23;101742.13;;;10.16;36.00
10510;BME280;5303;53.266;10.410;2023-04-07T13:00:50;101748.56;;;10.34;34.55
10510;BME280;5303;53.266;10.410;2023-04-07T13:03:16;101748.69;;;10.44;33.62
10510;BME280;5303;53.266;10.410;2023-04-07T13:05:41;101743.34;;;10.41;32.21
10510;BME280;5303;53.266;10.410;2023-04-07T13:08:06;101746.81;;;10.33;30.82
10510;BME280;5303;53.266;10.410;2023-04-07T13:10:32;101742.44;;;10.37;32.05